Time;durP1;ratioP1;P1;durP2;ratioP2;P2;SDS_P1;SDS_P2;PMS_P1;PMS_P2;Temp;Humidity;BMP_temperature;BMP_pressure;BME280_temperature;BME280_humidity;BME280_pressure;Samples;Min_cycle;Max_cycle;Signal;HPM_P1;HPM_P2
2022/09/19 00:01:18;;;;;;;14.55;2.17;;;;;;;11.25;100.00;101830.84;5077806;28;20032;-67
2022/09/19 00:03:50;;;;;;;5.10;1.33;;;;;;;11.26;100.00;101830.88;5092604;28;20145;-68
2022/09/19 00:06:17;;;;;;;17.92;2.15;;;;;;;11.24;100.00;101836.97;5085220;28;20020;-67
2022/09/19 00:08:44;;;;;;;20.75;2.40;;;;;;;11.23;100.00;101829.88;5081252;28;20044;-67
2022/09/19 00:11:10;;;;;;;12.23;1.85;;;;;;;11.17;100.00;101835.88;5081317;28;20028;-68
2022/09/19 00:13:44;;;;;;;12.52;1.67;;;;;;;11.09;100.00;101833.00;5081338;28;20396;-67
2022/09/19 00:16:10;;;;;;;9.85;2.25;;;;;;;11.04;100.00;101832.00;5083872;28;20380;-67
2022/09/19 00:18:35;;;;;;;12.20;1.85;;;;;;;10.95;100.00;101835.22;5066187;28;20039;-66
2022/09/19 00:21:01;;;;;;;13.07;1.92;;;;;;;10.88;100.00;101829.72;5074253;28;20488;-68
2022/09/19 00:26:17;;;;;;;16.98;2.42;;;;;;;10.76;100.00;101831.13;5071797;28;20043;-68
2022/09/19 00:28:44;;;;;;;11.63;1.73;;;;;;;10.72;100.00;101828.34;5071114;28;20484;-68
2022/09/19 00:31:16;;;;;;;13.75;1.63;;;;;;;10.66;100.00;101834.28;5075187;28;20028;-68
2022/09/19 00:33:44;;;;;;;14.77;1.95;;;;;;;10.62;100.00;101835.03;5079201;28;20036;-68
2022/09/19 00:36:10;;;;;;;17.10;1.52;;;;;;;10.58;100.00;101841.97;5076610;28;20024;-68
2022/09/19 00:38:36;;;;;;;8.77;1.67;;;;;;;10.56;100.00;101843.63;5073560;28;20028;-68
2022/09/19 00:41:02;;;;;;;11.77;1.88;;;;;;;10.54;100.00;101839.16;5080652;28;20028;-68
2022/09/19 00:43:47;;;;;;;9.25;1.20;;;;;;;10.56;100.00;101841.00;5082848;28;20024;-68
2022/09/19 00:46:12;;;;;;;10.15;1.38;;;;;;;10.55;100.00;101840.97;5073485;28;20020;-68
2022/09/19 00:48:41;;;;;;;11.60;1.35;;;;;;;10.58;100.00;101843.69;5076141;28;20024;-68
2022/09/19 00:51:10;;;;;;;13.10;1.33;;;;;;;10.63;100.00;101843.00;5074239;28;20048;-68
2022/09/19 00:53:36;;;;;;;5.28;1.45;;;;;;;10.70;100.00;101838.84;5075623;28;20413;-68
2022/09/19 00:56:04;;;;;;;10.05;1.25;;;;;;;10.76;100.00;101844.28;5073308;28;20081;-68
2022/09/19 00:58:39;;;;;;;7.68;1.52;;;;;;;10.83;100.00;101842.75;5072235;28;20062;-68
2022/09/19 01:01:05;;;;;;;13.23;1.75;;;;;;;10.88;100.00;101842.88;5073078;28;20032;-68
2022/09/19 01:03:31;;;;;;;18.50;1.83;;;;;;;10.92;100.00;101842.13;5059598;28;20060;-67
2022/09/19 01:06:36;;;;;;;10.93;1.45;;;;;;;10.98;100.00;101849.34;5073132;28;20105;-68
2022/09/19 01:09:26;;;;;;;10.88;1.50;;;;;;;11.03;100.00;101848.63;5076948;28;20090;-67
2022/09/19 01:11:57;;;;;;;14.90;2.72;;;;;;;11.07;100.00;101853.16;5071078;28;20515;-68
2022/09/19 01:14:43;;;;;;;6.20;1.20;;;;;;;11.12;100.00;101853.28;5073704;28;20380;-68
2022/09/19 01:17:16;;;;;;;14.20;2.15;;;;;;;11.18;100.00;101852.56;5077368;28;20016;-67
2022/09/19 01:19:59;;;;;;;15.10;1.73;;;;;;;11.25;100.00;101844.03;5075319;28;20111;-67
2022/09/19 01:22:34;;;;;;;14.07;1.95;;;;;;;11.34;100.00;101849.56;5065426;28;20045;-67
2022/09/19 01:25:17;;;;;;;17.08;3.55;;;;;;;11.40;100.00;101849.72;5071837;28;20034;-68
2022/09/19 01:28:10;;;;;;;15.43;1.92;;;;;;;11.44;100.00;101856.00;5076387;28;20170;-68
2022/09/19 01:30:43;;;;;;;13.73;1.80;;;;;;;11.48;100.00;101853.47;5072549;28;20039;-68
2022/09/19 01:33:18;;;;;;;12.90;1.85;;;;;;;11.54;100.00;101851.88;5075652;28;20314;-68
2022/09/19 01:35:50;;;;;;;12.85;1.35;;;;;;;11.57;100.00;101862.50;5077553;28;20020;-68
2022/09/19 01:38:21;;;;;;;12.07;1.55;;;;;;;11.54;100.00;101857.16;5076332;28;20031;-67
2022/09/19 01:40:48;;;;;;;12.52;1.17;;;;;;;11.51;100.00;101857.06;5071990;28;20063;-68
2022/09/19 01:43:16;;;;;;;11.00;2.08;;;;;;;11.47;100.00;101863.97;5071238;28;20426;-68
2022/09/19 01:45:42;;;;;;;10.68;1.85;;;;;;;11.41;100.00;101866.47;5073354;28;20024;-68
2022/09/19 01:48:26;;;;;;;9.23;1.20;;;;;;;11.36;100.00;101858.41;5075085;28;20074;-67
2022/09/19 01:51:13;;;;;;;6.35;1.63;;;;;;;11.25;100.00;101865.97;5071572;28;20050;-67
2022/09/19 01:53:47;;;;;;;6.57;1.10;;;;;;;11.15;100.00;101863.94;5078437;28;20032;-67
2022/09/19 01:56:24;;;;;;;18.55;1.73;;;;;;;11.09;100.00;101864.59;5072601;28;20403;-67
2022/09/19 01:59:08;;;;;;;8.32;1.35;;;;;;;11.02;100.00;101872.28;5073799;28;20107;-68
2022/09/19 02:02:00;;;;;;;7.00;1.23;;;;;;;10.94;100.00;101870.28;5072528;28;20052;-68
2022/09/19 02:04:43;;;;;;;8.00;1.08;;;;;;;10.89;100.00;101865.72;5072183;28;20537;-68
2022/09/19 02:07:42;;;;;;;10.27;1.40;;;;;;;10.79;100.00;101875.97;5071734;28;20024;-68
2022/09/19 02:10:15;;;;;;;7.07;1.02;;;;;;;10.72;100.00;101868.72;5072127;28;20056;-67
2022/09/19 02:12:43;;;;;;;9.98;1.10;;;;;;;10.64;100.00;101870.22;5068496;28;20027;-69
2022/09/19 02:15:12;;;;;;;6.72;1.30;;;;;;;10.56;100.00;101867.31;5077320;28;20020;-67
2022/09/19 02:17:51;;;;;;;2.90;1.23;;;;;;;10.49;100.00;101864.47;5075562;28;20476;-68
2022/09/19 02:20:32;;;;;;;5.32;0.90;;;;;;;10.42;100.00;101869.50;5083801;28;20019;-68
2022/09/19 02:23:18;;;;;;;12.25;1.40;;;;;;;10.37;100.00;101871.06;5071525;28;20464;-68
2022/09/19 02:25:46;;;;;;;9.10;2.03;;;;;;;10.35;100.00;101872.78;5072629;28;20039;-67
2022/09/19 02:28:21;;;;;;;9.73;1.13;;;;;;;10.33;100.00;101870.91;5073045;28;20418;-67
2022/09/19 02:30:48;;;;;;;8.35;1.30;;;;;;;10.34;100.00;101873.56;5073258;28;20310;-67
2022/09/19 02:33:15;;;;;;;11.35;1.33;;;;;;;10.35;100.00;101875.41;5070626;28;20093;-67
2022/09/19 02:35:59;;;;;;;6.97;0.90;;;;;;;10.36;100.00;101878.91;5071932;28;20034;-68
2022/09/19 02:38:33;;;;;;;9.90;1.10;;;;;;;10.35;100.00;101879.75;5087167;28;20029;-68
2022/09/19 02:41:21;;;;;;;10.52;1.45;;;;;;;10.35;100.00;101872.78;5072219;28;20028;-68
2022/09/19 02:44:21;;;;;;;12.05;1.67;;;;;;;10.35;100.00;101872.78;5071674;28;20033;-68
2022/09/19 02:47:02;;;;;;;6.70;1.05;;;;;;;10.37;100.00;101875.47;5072161;28;20020;-68
2022/09/19 02:49:45;;;;;;;9.18;1.17;;;;;;;10.38;100.00;101872.88;5080569;28;20040;-68
2022/09/19 02:52:19;;;;;;;6.30;1.03;;;;;;;10.36;100.00;101874.53;5071670;28;20040;-67
2022/09/19 02:55:03;;;;;;;10.27;1.27;;;;;;;10.37;100.00;101865.81;5077508;28;20279;-68
2022/09/19 02:57:31;;;;;;;9.15;1.48;;;;;;;10.39;100.00;101871.13;5074437;28;20036;-68
2022/09/19 03:00:01;;;;;;;5.68;1.45;;;;;;;10.37;100.00;101871.06;5079318;28;20109;-68
2022/09/19 03:02:31;;;;;;;6.97;1.52;;;;;;;10.37;100.00;101875.47;5086772;28;20136;-68
2022/09/19 03:05:02;;;;;;;14.05;1.33;;;;;;;10.37;100.00;101876.34;5092953;28;20036;-68
2022/09/19 03:07:33;;;;;;;9.88;1.40;;;;;;;10.35;100.00;101875.41;5064130;28;20033;-68
2022/09/19 03:10:10;;;;;;;7.43;1.27;;;;;;;10.37;100.00;101876.34;5090791;28;20044;-68
2022/09/19 03:12:51;;;;;;;8.48;1.10;;;;;;;10.42;100.00;101874.75;5075195;28;20103;-67
2022/09/19 03:15:26;;;;;;;4.35;0.88;;;;;;;10.45;100.00;101873.97;5074852;28;20028;-67
2022/09/19 03:17:53;;;;;;;17.13;1.30;;;;;;;10.46;100.00;101870.50;5074328;28;20384;-68
2022/09/19 03:20:22;;;;;;;7.40;1.25;;;;;;;10.47;100.00;101874.91;5072307;28;20032;-68
2022/09/19 03:22:48;;;;;;;10.23;1.25;;;;;;;10.49;100.00;101872.34;5074594;28;20454;-68
2022/09/19 03:25:14;;;;;;;11.50;1.17;;;;;;;10.50;100.00;101871.47;5081923;28;20027;-68
2022/09/19 03:27:40;;;;;;;7.72;1.33;;;;;;;10.52;100.00;101872.44;5076569;28;20081;-68
2022/09/19 03:30:08;;;;;;;12.85;1.02;;;;;;;10.53;100.00;101872.50;5076374;28;20032;-68
2022/09/19 03:32:35;;;;;;;8.32;1.48;;;;;;;10.55;100.00;101875.16;5076396;28;21508;-68
2022/09/19 03:35:02;;;;;;;10.85;1.25;;;;;;;10.57;100.00;101879.66;5065306;28;20384;-68
2022/09/19 03:37:28;;;;;;;5.88;1.30;;;;;;;10.66;100.00;101873.78;5072486;28;20033;-68
2022/09/19 03:39:53;;;;;;;9.38;1.20;;;;;;;10.69;100.00;101879.16;5075468;28;20024;-68
2022/09/19 03:42:19;;;;;;;12.43;1.25;;;;;;;10.68;100.00;101872.09;5074145;28;20027;-68
2022/09/19 03:44:44;;;;;;;5.78;1.10;;;;;;;10.65;100.00;101879.91;5067415;28;20064;-68
2022/09/19 03:47:10;;;;;;;7.63;1.05;;;;;;;10.63;100.00;101879.88;5074411;28;20021;-68
2022/09/19 03:49:35;;;;;;;6.30;1.35;;;;;;;10.62;100.00;101883.31;5074802;28;20024;-68
2022/09/19 03:52:01;;;;;;;9.70;0.95;;;;;;;10.65;100.00;101887.81;5075192;28;20028;-68
2022/09/19 03:54:26;;;;;;;6.15;0.90;;;;;;;10.74;100.00;101890.75;5056039;28;20033;-68
2022/09/19 03:56:53;;;;;;;6.07;0.85;;;;;;;10.87;100.00;101883.25;5082568;28;20025;-68
2022/09/19 03:59:18;;;;;;;10.95;1.58;;;;;;;10.97;100.00;101890.56;5074316;28;20029;-68
2022/09/19 04:01:44;;;;;;;8.48;1.00;;;;;;;11.02;100.00;101893.38;5074798;28;20021;-68
2022/09/19 04:04:10;;;;;;;10.40;2.45;;;;;;;11.06;100.00;101896.13;5078389;28;20488;-68
2022/09/19 04:06:36;;;;;;;10.82;1.25;;;;;;;11.10;100.00;101892.75;5074774;28;20033;-68
2022/09/19 04:09:01;;;;;;;7.88;1.00;;;;;;;11.13;100.00;101887.56;5076669;28;20040;-68
2022/09/19 04:11:28;;;;;;;8.38;1.35;;;;;;;11.23;100.00;101893.13;5074836;28;20033;-68
2022/09/19 04:13:55;;;;;;;9.40;1.10;;;;;;;11.22;100.00;101899.25;5077988;28;20029;-68
2022/09/19 04:16:20;;;;;;;7.00;1.20;;;;;;;11.30;100.00;101895.13;5073392;28;20025;-68
2022/09/19 04:18:49;;;;;;;8.27;1.40;;;;;;;11.38;100.00;101896.25;5063208;28;20036;-68
2022/09/19 04:21:18;;;;;;;8.40;1.00;;;;;;;11.45;100.00;101898.22;5083476;28;20099;-68
2022/09/19 04:23:44;;;;;;;6.75;0.80;;;;;;;11.45;100.00;101899.97;5088288;28;20032;-68
2022/09/19 04:26:11;;;;;;;9.25;1.73;;;;;;;11.40;100.00;101902.44;5091163;28;20078;-68
2022/09/19 04:28:38;;;;;;;8.25;0.82;;;;;;;11.36;100.00;101902.31;5072319;28;20012;-67
2022/09/19 04:31:05;;;;;;;8.38;1.10;;;;;;;11.32;100.00;101908.34;5072362;28;20027;-68
2022/09/19 04:33:31;;;;;;;8.98;2.03;;;;;;;11.24;100.00;101911.59;5074463;28;20055;-68
2022/09/19 04:36:00;;;;;;;8.60;1.05;;;;;;;11.16;100.00;101910.47;5075226;28;20139;-67
2022/09/19 04:38:28;;;;;;;6.72;1.38;;;;;;;11.08;100.00;101914.63;5077582;28;20028;-68
2022/09/19 04:40:56;;;;;;;8.48;0.88;;;;;;;11.01;100.00;101924.06;5073535;28;20478;-68
2022/09/19 04:43:26;;;;;;;5.82;1.23;;;;;;;10.93;100.00;101920.28;5073343;28;20104;-68
2022/09/19 04:45:53;;;;;;;5.22;0.65;;;;;;;10.87;100.00;101920.09;5078711;28;20028;-68
2022/09/19 04:48:19;;;;;;;8.82;1.23;;;;;;;10.79;100.00;101918.09;5074377;28;20026;-68
2022/09/19 04:50:50;;;;;;;10.50;1.52;;;;;;;10.74;100.00;101922.34;5073317;28;20020;-67
2022/09/19 04:53:18;;;;;;;6.85;1.02;;;;;;;10.70;100.00;101928.34;5073153;28;20037;-68
2022/09/19 04:55:47;;;;;;;11.65;1.27;;;;;;;10.65;100.00;101921.09;5074889;28;20028;-68
2022/09/19 04:58:15;;;;;;;12.73;1.63;;;;;;;10.62;100.00;101917.53;5067912;28;20460;-68
2022/09/19 05:00:40;;;;;;;9.30;0.93;;;;;;;10.60;100.00;101915.69;5072803;28;20031;-67
2022/09/19 05:03:08;;;;;;;7.70;1.45;;;;;;;10.65;100.00;101919.38;5078941;28;20032;-68
2022/09/19 05:05:36;;;;;;;8.27;1.20;;;;;;;10.75;100.00;101923.22;5085005;28;20020;-67
2022/09/19 05:08:04;;;;;;;9.82;1.48;;;;;;;10.91;100.00;101919.34;5071649;28;20028;-68
2022/09/19 05:10:31;;;;;;;11.90;1.40;;;;;;;11.12;100.00;101927.03;5071353;28;20468;-68
2022/09/19 05:12:57;;;;;;;10.10;1.40;;;;;;;11.28;100.00;101931.06;5073275;28;20392;-67
2022/09/19 05:15:24;;;;;;;10.90;1.20;;;;;;;11.37;100.00;101926.06;5073480;28;20028;-68
2022/09/19 05:17:52;;;;;;;11.93;1.30;;;;;;;11.46;100.00;101938.63;5073025;28;20033;-69
2022/09/19 05:20:19;;;;;;;5.60;1.20;;;;;;;11.56;100.00;101934.56;5072823;28;20064;-69
2022/09/19 05:22:44;;;;;;;13.40;1.85;;;;;;;11.64;100.00;101938.31;5071852;28;20391;-70
2022/09/19 05:25:10;;;;;;;9.77;1.27;;;;;;;11.74;100.00;101937.72;5062232;28;20034;-69
2022/09/19 05:27:36;;;;;;;12.98;1.60;;;;;;;11.82;100.00;101933.56;5082185;28;20103;-69
2022/09/19 05:30:03;;;;;;;8.60;1.23;;;;;;;11.86;100.00;101936.31;5073427;28;20029;-69
2022/09/19 05:32:29;;;;;;;12.73;1.98;;;;;;;11.86;100.00;101941.56;5073731;28;20039;-69
2022/09/19 05:34:56;;;;;;;13.43;1.58;;;;;;;11.87;100.00;101935.44;5088685;28;20142;-69
2022/09/19 05:37:22;;;;;;;7.15;0.98;;;;;;;11.93;100.00;101946.16;5072881;28;20115;-70
2022/09/19 05:39:48;;;;;;;8.93;1.92;;;;;;;11.96;100.00;101943.66;5065052;28;20107;-70
2022/09/19 05:42:13;;;;;;;8.52;1.30;;;;;;;12.02;100.00;101946.47;5072378;28;20103;-69
2022/09/19 05:44:39;;;;;;;8.18;0.82;;;;;;;12.07;100.00;101954.50;5071927;28;20146;-69
2022/09/19 05:47:04;;;;;;;12.77;1.48;;;;;;;12.10;100.00;101947.56;5068993;28;20491;-69
2022/09/19 05:49:30;;;;;;;10.65;1.63;;;;;;;12.13;100.00;101947.66;5073031;28;20060;-69
2022/09/19 05:51:56;;;;;;;7.13;1.10;;;;;;;12.13;100.00;101957.31;5073340;28;20059;-69
2022/09/19 05:54:21;;;;;;;6.78;1.35;;;;;;;12.10;100.00;101960.78;5055086;28;20028;-69
2022/09/19 05:56:50;;;;;;;11.38;1.27;;;;;;;12.19;100.00;101954.84;5069265;28;20032;-66
2022/09/19 05:59:15;;;;;;;12.38;1.10;;;;;;;12.23;100.00;101954.06;5069828;28;20038;-69
2022/09/19 06:01:41;;;;;;;7.30;0.93;;;;;;;12.33;100.00;101957.88;5070957;28;20032;-67
2022/09/19 06:04:07;;;;;;;7.20;0.98;;;;;;;12.35;100.00;101958.81;5070544;28;20103;-68
2022/09/19 06:06:36;;;;;;;13.88;2.45;;;;;;;12.36;100.00;101968.50;5071247;28;20025;-67
2022/09/19 06:09:03;;;;;;;5.68;0.88;;;;;;;12.40;100.00;101965.09;5065312;28;20049;-70
2022/09/19 06:11:28;;;;;;;10.82;1.40;;;;;;;12.44;100.00;101971.38;5069514;28;20021;-68
2022/09/19 06:16:41;;;;;;;7.05;1.73;;;;;;;12.37;100.00;101970.31;5072339;28;20043;-68
2022/09/19 06:19:06;;;;;;;13.85;1.20;;;;;;;12.35;100.00;101969.38;5059595;28;20028;-68
2022/09/19 06:21:32;;;;;;;9.30;1.10;;;;;;;12.31;100.00;101978.03;5072538;28;20036;-68
2022/09/19 06:24:06;;;;;;;10.70;1.17;;;;;;;12.26;100.00;101977.00;5070678;28;20028;-68
2022/09/19 06:26:32;;;;;;;4.15;0.90;;;;;;;12.21;100.00;101989.19;5069333;28;20025;-68
2022/09/19 06:28:57;;;;;;;7.55;1.60;;;;;;;12.18;100.00;101983.81;5073460;28;20028;-68
2022/09/19 06:31:22;;;;;;;5.93;1.50;;;;;;;12.18;100.00;101990.03;5072918;28;20031;-68
2022/09/19 06:33:48;;;;;;;8.40;1.13;;;;;;;12.17;100.00;101995.22;5071243;28;20115;-67
2022/09/19 06:36:14;;;;;;;6.78;0.98;;;;;;;12.14;100.00;101988.16;5072996;28;20108;-68
2022/09/19 06:38:42;;;;;;;10.75;1.13;;;;;;;12.17;100.00;101993.50;5073015;28;20024;-67
2022/09/19 06:41:08;;;;;;;6.65;1.05;;;;;;;12.17;100.00;101993.50;5075714;28;20102;-68
2022/09/19 06:43:34;;;;;;;4.30;1.00;;;;;;;12.27;100.00;101995.53;5076912;28;20419;-68
2022/09/19 06:45:59;;;;;;;6.85;1.02;;;;;;;12.37;100.00;102002.00;5076876;28;20031;-67
2022/09/19 06:48:25;;;;;;;11.90;1.38;;;;;;;12.38;100.00;101997.59;5058621;28;20107;-68
2022/09/19 06:50:50;;;;;;;9.70;1.52;;;;;;;12.37;100.00;102004.63;5056255;28;20032;-68
2022/09/19 06:53:19;;;;;;;5.72;0.90;;;;;;;12.36;100.00;102009.84;5073456;28;20521;-68
2022/09/19 06:55:44;;;;;;;4.05;1.10;;;;;;;12.34;100.00;102007.16;5075559;28;20101;-68
2022/09/19 06:58:11;;;;;;;5.70;1.10;;;;;;;12.35;100.00;102003.66;5076020;28;20456;-68
2022/09/19 07:00:38;;;;;;;4.90;0.93;;;;;;;12.40;100.00;102011.69;5075796;28;20078;-68
2022/09/19 07:03:15;;;;;;;8.82;1.17;;;;;;;12.50;100.00;102013.75;5076112;28;20055;-68
2022/09/19 07:05:42;;;;;;;17.48;1.40;;;;;;;12.58;100.00;102011.34;5076079;28;20021;-68
2022/09/19 07:08:09;;;;;;;4.68;0.65;;;;;;;12.67;100.00;102022.16;5076315;28;20420;-68
2022/09/19 07:10:36;;;;;;;9.52;1.20;;;;;;;12.84;100.00;102019.94;5074961;28;20131;-68
2022/09/19 07:13:04;;;;;;;8.18;1.10;;;;;;;13.01;100.00;102022.13;5078530;28;20544;-67
2022/09/19 07:15:31;;;;;;;10.23;1.92;;;;;;;13.18;100.00;102017.28;5075858;28;20039;-67
2022/09/19 07:17:57;;;;;;;7.00;1.08;;;;;;;13.35;100.00;102020.31;5076898;28;20040;-67
2022/09/19 07:20:23;;;;;;;13.82;0.95;;;;;;;13.47;100.00;102018.91;5076255;28;20028;-67
2022/09/19 07:23:19;;;;;;;4.07;0.90;;;;;;;13.58;100.00;102028.81;5071726;28;20551;-67
2022/09/19 07:25:45;;;;;;;8.20;1.17;;;;;;;13.62;100.00;102031.59;5058321;28;20033;-67
2022/09/19 07:28:15;;;;;;;11.25;1.17;;;;;;;13.64;100.00;102040.44;5076072;28;20021;-68
2022/09/19 07:30:43;;;;;;;14.18;2.35;;;;;;;13.69;100.00;102044.94;5057783;28;20402;-67
2022/09/19 07:33:10;;;;;;;4.78;0.90;;;;;;;13.73;100.00;102042.41;5075793;28;20016;-67
2022/09/19 07:35:36;;;;;;;19.35;4.18;;;;;;;13.77;100.00;102036.34;5075087;28;20036;-67
2022/09/19 07:38:04;;;;;;;13.20;2.35;;;;;;;13.78;100.00;102037.22;5074885;28;20028;-67
2022/09/19 07:40:30;;;;;;;4.82;1.00;;;;;;;13.79;100.00;102037.25;5075312;28;20039;-67
2022/09/19 07:43:02;;;;;;;10.50;1.10;;;;;;;13.80;100.00;102032.88;5075348;28;20099;-67
2022/09/19 07:45:29;;;;;;;7.30;1.33;;;;;;;13.81;100.00;102040.84;5075210;28;20032;-68
2022/09/19 07:47:55;;;;;;;5.50;1.10;;;;;;;13.82;100.00;102045.28;5074842;28;20267;-67
2022/09/19 07:50:20;;;;;;;11.85;1.40;;;;;;;13.82;100.00;102042.63;5057104;28;20029;-67
2022/09/19 07:52:46;;;;;;;4.35;1.75;;;;;;;13.84;100.00;102047.94;5074407;28;20034;-68
2022/09/19 07:55:13;;;;;;;10.07;1.27;;;;;;;13.80;100.00;102044.34;5056420;28;20024;-68
2022/09/19 07:57:49;;;;;;;12.63;1.88;;;;;;;13.74;100.00;102040.66;5073554;28;20035;-68
2022/09/19 08:00:14;;;;;;;7.78;1.25;;;;;;;13.73;100.00;102050.34;5073068;28;20089;-67
2022/09/19 08:02:40;;;;;;;11.85;1.15;;;;;;;13.74;100.00;102052.16;5073319;28;20037;-67
2022/09/19 08:05:05;;;;;;;5.30;0.88;;;;;;;13.78;100.00;102045.16;5073256;28;20029;-67
2022/09/19 08:07:31;;;;;;;10.02;2.38;;;;;;;13.92;100.00;102053.44;5073683;28;20024;-68
2022/09/19 08:09:56;;;;;;;6.80;1.10;;;;;;;14.05;100.00;102066.03;5073619;28;20076;-68
2022/09/19 08:12:22;;;;;;;11.30;1.63;;;;;;;14.08;100.00;102060.84;5074160;28;20489;-68
2022/09/19 08:14:48;;;;;;;14.75;1.35;;;;;;;14.14;100.00;102065.38;5073282;28;20024;-67
2022/09/19 08:17:14;;;;;;;8.55;1.35;;;;;;;14.18;100.00;102071.63;5074595;28;20023;-67
2022/09/19 08:19:40;;;;;;;12.73;1.05;;;;;;;14.25;100.00;102073.53;5074940;28;20050;-68
2022/09/19 08:22:05;;;;;;;9.38;0.90;;;;;;;14.33;100.00;102070.16;5073064;28;20025;-67
2022/09/19 08:24:31;;;;;;;9.38;1.17;;;;;;;14.40;100.00;102080.91;5073127;28;20024;-67
2022/09/19 08:26:58;;;;;;;4.63;0.80;;;;;;;14.48;100.00;102081.94;5074401;28;20020;-68
2022/09/19 08:29:23;;;;;;;6.93;1.05;;;;;;;14.55;100.00;102082.97;5074473;28;20024;-67
2022/09/19 08:31:51;;;;;;;5.15;1.27;;;;;;;14.57;100.00;102087.44;5073613;28;20035;-68
2022/09/19 08:34:16;;;;;;;9.73;0.90;;;;;;;14.58;100.00;102083.94;5074482;28;20059;-68
2022/09/19 08:36:41;;;;;;;8.50;0.98;;;;;;;14.57;100.00;102084.78;5074571;28;20036;-68
2022/09/19 08:39:07;;;;;;;4.18;0.90;;;;;;;14.62;100.00;102087.53;5074503;28;20073;-67
2022/09/19 08:42:15;;;;;;;7.50;1.33;;;;;;;14.72;100.00;102085.97;5073007;28;20039;-68
2022/09/19 08:45:04;;;;;;;6.53;1.13;;;;;;;14.82;100.00;102094.13;5073861;28;20029;-68
2022/09/19 08:47:34;;;;;;;2.97;0.80;;;;;;;14.90;100.00;102096.06;5074049;28;20021;-68
2022/09/19 08:50:11;;;;;;;9.73;0.75;;;;;;;14.88;98.41;102097.75;5074422;28;20040;-68
2022/09/19 08:52:45;;;;;;;8.95;1.20;;;;;;;14.98;100.00;102099.72;5056330;28;20028;-68
2022/09/19 08:55:17;;;;;;;9.07;0.90;;;;;;;14.99;98.69;102097.09;5068731;28;20032;-67
2022/09/19 08:57:58;;;;;;;8.18;1.20;;;;;;;15.06;99.36;102098.13;5074486;28;20153;-68
2022/09/19 09:00:27;;;;;;;6.97;1.27;;;;;;;15.17;100.00;102099.19;5074299;28;20028;-68
2022/09/19 09:03:02;;;;;;;6.68;1.27;;;;;;;15.24;99.15;102101.97;5071027;28;20059;-68
2022/09/19 09:05:57;;;;;;;4.40;0.70;;;;;;;15.31;95.44;102106.50;5074118;28;20036;-68
2022/09/19 09:08:50;;;;;;;7.38;1.30;;;;;;;15.30;92.17;102104.69;5052482;28;20016;-68
2022/09/19 09:11:39;;;;;;;6.60;1.17;;;;;;;15.40;99.85;102104.00;5074931;28;20062;-68
2022/09/19 09:14:05;;;;;;;7.05;0.98;;;;;;;15.53;100.00;102105.09;5068221;28;20430;-68
2022/09/19 09:17:05;;;;;;;11.35;1.52;;;;;;;15.72;94.69;102101.00;5074803;28;20032;-68
2022/09/19 09:19:36;;;;;;;4.35;0.82;;;;;;;15.83;89.21;102102.06;5078581;28;20028;-69
2022/09/19 09:22:36;;;;;;;5.63;0.60;;;;;;;15.93;96.11;102108.41;5073289;28;20430;-68
2022/09/19 09:25:12;;;;;;;4.70;0.70;;;;;;;15.94;91.46;102109.28;5066914;28;20025;-68
2022/09/19 09:28:09;;;;;;;5.00;0.65;;;;;;;16.02;92.39;102097.03;5086472;28;20468;-68
2022/09/19 09:30:41;;;;;;;4.30;1.00;;;;;;;16.03;93.03;102106.75;5040165;28;20480;-69
2022/09/19 09:33:31;;;;;;;7.88;1.10;;;;;;;16.00;88.96;102114.69;5074815;28;20020;-69
2022/09/19 09:36:04;;;;;;;3.70;0.77;;;;;;;16.00;87.74;102109.38;5086823;28;20028;-68
2022/09/19 09:38:36;;;;;;;11.55;1.15;;;;;;;15.88;84.67;102107.44;5069884;28;20032;-69
2022/09/19 09:44:31;;;;;;;7.03;1.38;;;;;;;16.04;85.31;102103.25;5080310;28;20450;-69
2022/09/19 09:46:58;;;;;;;11.68;1.13;;;;;;;16.25;85.71;102112.38;5073356;28;20028;-70
2022/09/19 09:49:28;;;;;;;5.57;1.23;;;;;;;16.60;86.60;102119.91;5078440;28;20037;-69
2022/09/19 09:52:17;;;;;;;5.25;1.23;;;;;;;16.93;80.07;102113.22;5077671;28;20024;-69
2022/09/19 09:58:15;;;;;;;9.73;1.08;;;;;;;17.40;84.28;102118.09;5084586;28;20039;-69
2022/09/19 10:03:34;;;;;;;11.13;1.02;;;;;;;17.97;69.28;102117.69;5085413;28;20089;-69
2022/09/19 10:06:04;;;;;;;10.63;1.95;;;;;;;18.03;71.72;102125.72;5073789;28;20025;-68
2022/09/19 10:08:44;;;;;;;11.75;1.52;;;;;;;17.89;75.26;102120.25;5072236;28;20024;-69
2022/09/19 10:11:13;;;;;;;9.80;1.00;;;;;;;17.91;77.86;102122.94;5069862;28;20024;-69
2022/09/19 10:14:04;;;;;;;8.48;1.27;;;;;;;18.03;78.40;102120.41;5071838;28;20028;-68
2022/09/19 10:16:32;;;;;;;5.35;1.00;;;;;;;18.08;69.52;102118.66;5066722;28;20085;-69
2022/09/19 10:19:25;;;;;;;7.32;1.00;;;;;;;18.17;64.90;102126.69;5065579;28;20069;-69
2022/09/19 10:21:52;;;;;;;7.43;0.73;;;;;;;18.18;71.00;102128.47;5077661;28;20361;-68
2022/09/19 10:24:59;;;;;;;5.80;1.23;;;;;;;17.91;71.87;102123.81;5055174;28;20070;-68
2022/09/19 10:27:33;;;;;;;5.22;1.30;;;;;;;17.97;70.13;102123.00;5067671;28;20138;-71
2022/09/19 10:30:14;;;;;;;5.13;0.75;;;;;;;18.05;63.88;102123.94;5075678;28;20036;-71
2022/09/19 10:32:40;;;;;;;10.10;1.05;;;;;;;18.23;60.35;102125.84;5063069;28;20043;-71
2022/09/19 10:35:25;;;;;;;6.60;0.93;;;;;;;18.57;63.22;102130.41;5077002;28;20024;-73
2022/09/19 10:38:15;;;;;;;3.15;0.60;;;;;;;18.65;54.28;102120.66;5076057;28;20434;-71
2022/09/19 10:40:56;;;;;;;5.30;0.90;;;;;;;18.56;52.53;102123.28;5074925;28;20391;-71
2022/09/19 10:43:26;;;;;;;4.78;0.85;;;;;;;18.83;59.28;102126.06;5076797;28;20107;-70
2022/09/19 10:45:53;;;;;;;4.93;0.80;;;;;;;18.98;55.73;102124.38;5064478;28;20434;-71
2022/09/19 10:48:32;;;;;;;6.40;1.15;;;;;;;18.67;56.02;102132.25;5072994;28;20032;-70
2022/09/19 10:50:59;;;;;;;7.88;1.15;;;;;;;18.62;57.77;102126.00;5061262;28;20056;-71
2022/09/19 10:53:33;;;;;;;5.07;1.02;;;;;;;18.58;55.77;102129.53;5075313;28;20029;-70
2022/09/19 10:56:11;;;;;;;5.80;1.02;;;;;;;18.84;66.14;102130.53;5075152;28;20063;-71
2022/09/19 10:58:42;;;;;;;7.50;0.88;;;;;;;19.15;63.74;102135.97;5065833;28;20025;-72
2022/09/19 11:01:21;;;;;;;7.60;0.95;;;;;;;19.65;72.65;102147.53;5064160;28;20087;-70
2022/09/19 11:04:23;;;;;;;11.32;1.17;;;;;;;19.82;58.49;102134.22;5057897;28;20043;-72
2022/09/19 11:07:01;;;;;;;3.53;0.90;;;;;;;19.61;58.28;102139.53;5038093;28;20380;-71
2022/09/19 11:09:33;;;;;;;3.50;0.60;;;;;;;19.60;54.49;102138.66;5067793;28;20692;-70
2022/09/19 11:12:16;;;;;;;5.80;0.85;;;;;;;19.51;64.93;102141.31;5074534;28;20036;-72
2022/09/19 11:14:44;;;;;;;3.90;0.85;;;;;;;19.60;59.94;102144.00;5074128;28;20036;-70
2022/09/19 11:17:31;;;;;;;6.63;1.10;;;;;;;19.52;63.14;102143.09;5068353;28;20021;-71
2022/09/19 11:20:03;;;;;;;5.32;1.00;;;;;;;19.49;64.62;102141.34;5062486;28;20529;-71
2022/09/19 11:22:35;;;;;;;7.18;1.05;;;;;;;19.26;61.28;102132.41;5056708;28;20122;-71
2022/09/19 11:25:26;;;;;;;4.00;0.98;;;;;;;18.86;65.19;102138.53;5074535;28;20047;-71
2022/09/19 11:28:29;;;;;;;7.10;1.10;;;;;;;18.67;76.13;102148.25;5071914;28;20034;-71
2022/09/19 11:30:55;;;;;;;6.15;1.02;;;;;;;18.71;74.00;102152.69;5071912;28;20017;-71
2022/09/19 11:33:38;;;;;;;6.55;1.00;;;;;;;19.14;76.48;102136.84;5073410;28;20059;-71
2022/09/19 11:36:17;;;;;;;7.13;1.48;;;;;;;19.39;69.82;102134.19;5074584;28;20028;-71
2022/09/19 11:39:06;;;;;;;9.88;1.10;;;;;;;20.03;64.31;102143.09;5068896;28;20027;-71
2022/09/19 11:41:47;;;;;;;5.45;0.70;;;;;;;20.57;58.86;102145.59;5063458;28;20028;-69
2022/09/19 11:44:31;;;;;;;5.50;1.00;;;;;;;20.44;55.94;102143.84;5073618;28;20052;-69
2022/09/19 11:47:18;;;;;;;9.40;1.02;;;;;;;20.79;60.72;102138.38;5073619;28;20095;-68
2022/09/19 11:50:03;;;;;;;5.05;0.93;;;;;;;20.58;56.11;102135.78;5069240;28;20066;-69
2022/09/19 11:53:03;;;;;;;6.18;0.88;;;;;;;20.44;55.25;102134.03;5072854;28;20404;-68
2022/09/19 11:55:51;;;;;;;6.40;1.20;;;;;;;20.96;65.53;102142.72;5073923;28;20060;-68